createdAt,value
2017-02-14T00:00:57.774Z,0
2017-02-14T00:02:08.095Z,0
2017-02-14T00:03:18.805Z,0
2017-02-14T00:04:29.505Z,0
2017-02-14T00:05:40.207Z,0
2017-02-14T00:06:50.938Z,0
2017-02-14T00:08:01.641Z,0
2017-02-14T00:09:11.181Z,0
2017-02-14T00:10:21.494Z,0
2017-02-14T00:11:32.188Z,0
2017-02-14T00:12:42.889Z,0
2017-02-14T00:13:53.610Z,0
2017-02-14T00:15:03.915Z,0
2017-02-14T00:16:14.637Z,0
2017-02-14T00:17:25.345Z,0
2017-02-14T00:18:36.044Z,0
2017-02-14T00:19:46.758Z,0
2017-02-14T00:20:57.460Z,0
2017-02-14T00:22:07.760Z,0
2017-02-14T00:23:18.050Z,0
2017-02-14T00:24:28.748Z,0
2017-02-14T00:25:39.450Z,0
2017-02-14T00:26:50.154Z,0
2017-02-14T00:28:00.472Z,0
2017-02-14T00:29:11.171Z,0
2017-02-14T00:30:21.470Z,0
2017-02-14T00:31:32.177Z,0
2017-02-14T00:32:42.900Z,0
2017-02-14T00:33:53.647Z,0
2017-02-14T00:35:04.336Z,0
2017-02-14T00:36:14.243Z,0
2017-02-14T00:37:24.563Z,0
2017-02-14T00:38:35.286Z,0
2017-02-14T00:39:45.998Z,0
2017-02-14T00:40:56.693Z,0
2017-02-14T00:42:07.391Z,0
2017-02-14T00:43:16.889Z,0
2017-02-14T00:44:27.201Z,0
2017-02-14T00:45:37.914Z,0
2017-02-14T00:46:48.623Z,0
2017-02-14T00:47:59.311Z,0
2017-02-14T00:49:09.625Z,0
2017-02-14T00:50:19.517Z,0
2017-02-14T00:51:29.863Z,0
2017-02-14T00:52:40.575Z,0
2017-02-14T00:53:51.284Z,0
2017-02-14T00:55:01.990Z,0
2017-02-14T00:56:12.316Z,0
2017-02-14T00:57:23.026Z,0
2017-02-14T00:58:33.721Z,0
2017-02-14T00:59:44.430Z,0
2017-02-14T01:00:55.140Z,0
2017-02-14T01:02:05.456Z,0
2017-02-14T01:03:16.178Z,0
2017-02-14T01:04:26.916Z,0
2017-02-14T01:05:37.606Z,0
2017-02-14T01:06:48.316Z,0
2017-02-14T01:07:59.027Z,0
2017-02-14T01:09:09.732Z,0
2017-02-14T01:10:20.039Z,0
2017-02-14T01:11:30.738Z,0
2017-02-14T01:12:41.456Z,0
2017-02-14T01:13:51.371Z,0
2017-02-14T01:15:02.075Z,0
2017-02-14T01:16:12.825Z,0
2017-02-14T01:17:23.528Z,0
2017-02-14T01:18:34.218Z,0
2017-02-14T01:19:44.902Z,0
2017-02-14T01:20:55.588Z,0
2017-02-14T01:22:05.905Z,0
2017-02-14T01:23:16.207Z,0
2017-02-14T01:24:26.921Z,0
2017-02-14T01:25:37.625Z,0
2017-02-14T01:26:48.322Z,0
2017-02-14T01:27:59.046Z,0
2017-02-14T01:29:09.769Z,0
2017-02-14T01:30:19.683Z,0
2017-02-14T01:31:30.378Z,0
2017-02-14T01:32:41.063Z,0
2017-02-14T01:33:51.785Z,0
2017-02-14T01:35:02.472Z,0
2017-02-14T01:36:13.199Z,0
2017-02-14T01:37:23.508Z,0
2017-02-14T01:38:34.197Z,0
2017-02-14T01:39:44.912Z,0
2017-02-14T01:40:55.655Z,0
2017-02-14T01:42:06.362Z,0
2017-02-14T01:43:17.044Z,0
2017-02-14T01:44:27.735Z,0
2017-02-14T01:45:38.452Z,0
2017-02-14T01:46:49.156Z,0
2017-02-14T01:47:59.450Z,0
2017-02-14T01:49:09.744Z,0
2017-02-14T01:50:20.061Z,0
2017-02-14T01:51:30.383Z,0
2017-02-14T01:52:41.073Z,0
2017-02-14T01:53:51.767Z,0
2017-02-14T01:55:02.471Z,0
2017-02-14T01:56:12.386Z,0
2017-02-14T01:57:21.914Z,0
2017-02-14T01:58:32.643Z,0
2017-02-14T01:59:43.350Z,0
2017-02-14T02:00:54.052Z,0
2017-02-14T02:02:04.354Z,0
2017-02-14T02:03:14.661Z,0
2017-02-14T02:04:25.376Z,0
2017-02-14T02:05:36.066Z,0
2017-02-14T02:06:46.774Z,0
2017-02-14T02:07:57.479Z,0
2017-02-14T02:09:08.166Z,0
2017-02-14T02:10:18.866Z,0
2017-02-14T02:11:29.574Z,0
2017-02-14T02:12:39.880Z,0
2017-02-14T02:13:50.580Z,0
2017-02-14T02:15:01.316Z,0
2017-02-14T02:16:11.602Z,0
2017-02-14T02:17:21.927Z,0
2017-02-14T02:18:32.620Z,0
2017-02-14T02:19:43.320Z,0
2017-02-14T02:20:54.023Z,0
2017-02-14T02:22:04.720Z,0
2017-02-14T02:23:15.409Z,0
2017-02-14T02:24:26.108Z,0
2017-02-14T02:25:36.805Z,0
2017-02-14T02:26:47.495Z,0
2017-02-14T02:27:58.198Z,0
2017-02-14T02:29:08.893Z,0
2017-02-14T02:30:18.831Z,0
2017-02-14T02:31:29.547Z,0
2017-02-14T02:32:40.239Z,0
2017-02-14T02:33:50.948Z,0
2017-02-14T02:35:01.666Z,0
2017-02-14T02:36:11.979Z,0
2017-02-14T02:37:22.721Z,0
2017-02-14T02:38:33.418Z,0
2017-02-14T02:39:44.132Z,0
2017-02-14T02:40:54.846Z,0
2017-02-14T02:42:05.546Z,0
2017-02-14T02:43:15.843Z,0
2017-02-14T02:44:26.535Z,0
2017-02-14T02:45:37.243Z,0
2017-02-14T02:46:47.946Z,0
2017-02-14T02:47:58.651Z,0
2017-02-14T02:49:09.347Z,0
2017-02-14T02:50:20.048Z,0
2017-02-14T02:51:30.738Z,0
2017-02-14T02:52:41.460Z,0
2017-02-14T02:53:52.155Z,0
2017-02-14T02:55:02.858Z,0
2017-02-14T02:56:13.560Z,0
2017-02-14T02:57:23.872Z,0
2017-02-14T02:58:34.171Z,0
2017-02-14T02:59:44.968Z,0
2017-02-14T03:00:55.672Z,0
2017-02-14T03:02:06.390Z,0
2017-02-14T03:03:16.678Z,0
2017-02-14T03:04:27.400Z,0
2017-02-14T03:05:38.238Z,0
2017-02-14T03:06:48.934Z,0
2017-02-14T03:07:59.636Z,0
2017-02-14T03:09:10.347Z,0
2017-02-14T03:10:19.852Z,0
2017-02-14T03:11:30.567Z,0
2017-02-14T03:12:41.264Z,0
2017-02-14T03:13:51.961Z,0
2017-02-14T03:15:02.676Z,0
2017-02-14T03:16:12.971Z,0
2017-02-14T03:17:23.666Z,0
2017-02-14T03:18:34.380Z,0
2017-02-14T03:19:45.082Z,0
2017-02-14T03:20:55.776Z,0
2017-02-14T03:22:06.071Z,0
2017-02-14T03:23:15.983Z,0
2017-02-14T03:24:26.679Z,0
2017-02-14T03:25:37.380Z,0
2017-02-14T03:26:47.692Z,0
2017-02-14T03:27:58.384Z,0
2017-02-14T03:29:09.101Z,0
2017-02-14T03:30:19.794Z,0
2017-02-14T03:31:29.728Z,0
2017-02-14T03:32:40.466Z,0
2017-02-14T03:33:51.174Z,0
2017-02-14T03:35:01.871Z,0
2017-02-14T03:36:12.576Z,0
2017-02-14T03:37:23.279Z,0
2017-02-14T03:38:33.998Z,0
2017-02-14T03:39:44.711Z,0
2017-02-14T03:40:55.415Z,0
2017-02-14T03:42:06.125Z,0
2017-02-14T03:43:16.811Z,0
2017-02-14T03:44:27.103Z,0
2017-02-14T03:45:37.394Z,0
2017-02-14T03:46:48.084Z,0
2017-02-14T03:47:58.816Z,0
2017-02-14T03:49:09.504Z,0
2017-02-14T03:50:20.208Z,0
2017-02-14T03:51:30.907Z,0
2017-02-14T03:52:41.634Z,0
2017-02-14T03:53:52.342Z,0
2017-02-14T03:55:03.067Z,0
2017-02-14T03:56:12.968Z,0
2017-02-14T03:57:23.665Z,0
2017-02-14T03:58:33.989Z,0
2017-02-14T03:59:44.714Z,0
2017-02-14T04:00:55.404Z,0
2017-02-14T04:02:05.732Z,0
2017-02-14T04:03:16.439Z,0
2017-02-14T04:04:26.353Z,0
2017-02-14T04:05:37.056Z,0
2017-02-14T04:06:47.772Z,0
2017-02-14T04:07:58.061Z,0
2017-02-14T04:09:08.772Z,0
2017-02-14T04:10:19.466Z,0
2017-02-14T04:11:30.157Z,0
2017-02-14T04:12:40.866Z,0
2017-02-14T04:13:51.549Z,0
2017-02-14T04:15:02.258Z,0
2017-02-14T04:16:12.552Z,0
2017-02-14T04:17:22.855Z,0
2017-02-14T04:18:33.556Z,0
2017-02-14T04:19:44.240Z,0
2017-02-14T04:20:54.948Z,0
2017-02-14T04:22:05.661Z,0
2017-02-14T04:23:16.359Z,0
2017-02-14T04:24:27.067Z,0
2017-02-14T04:25:37.780Z,0
2017-02-14T04:26:48.489Z,0
2017-02-14T04:27:59.182Z,0
2017-02-14T04:29:09.889Z,0
2017-02-14T04:30:20.603Z,0
2017-02-14T04:31:31.305Z,0
2017-02-14T04:32:42.010Z,0
2017-02-14T04:33:52.731Z,0
2017-02-14T04:35:03.053Z,0
2017-02-14T04:36:12.944Z,0
2017-02-14T04:37:23.639Z,0
2017-02-14T04:38:34.360Z,0
2017-02-14T04:39:44.670Z,0
2017-02-14T04:40:55.375Z,0
2017-02-14T04:42:06.076Z,0
2017-02-14T04:43:16.379Z,0
2017-02-14T04:44:27.063Z,0
2017-02-14T04:45:37.759Z,0
2017-02-14T04:46:48.459Z,0
2017-02-14T04:47:59.184Z,0
2017-02-14T04:49:09.881Z,0
2017-02-14T04:50:20.590Z,0
2017-02-14T04:51:31.278Z,0
2017-02-14T04:52:41.183Z,0
2017-02-14T04:53:51.900Z,0
2017-02-14T04:55:02.592Z,0
2017-02-14T04:56:13.311Z,0
2017-02-14T04:57:24.029Z,0
2017-02-14T04:58:34.331Z,0
2017-02-14T04:59:44.623Z,0
2017-02-14T05:00:55.335Z,0
2017-02-14T05:02:05.641Z,0
2017-02-14T05:03:16.355Z,0
2017-02-14T05:04:27.042Z,0
2017-02-14T05:05:37.775Z,0
2017-02-14T05:06:48.490Z,0
2017-02-14T05:07:59.172Z,0
2017-02-14T05:09:09.915Z,0
2017-02-14T05:10:20.213Z,0
2017-02-14T05:11:30.953Z,0
2017-02-14T05:12:40.865Z,0
2017-02-14T05:13:51.574Z,0
2017-02-14T05:15:02.289Z,0
2017-02-14T05:16:12.995Z,0
2017-02-14T05:17:23.695Z,0
2017-02-14T05:18:34.387Z,0
2017-02-14T05:19:45.097Z,0
2017-02-14T05:20:55.814Z,0
2017-02-14T05:22:06.528Z,0
2017-02-14T05:23:16.851Z,0
2017-02-14T05:24:27.158Z,0
2017-02-14T05:25:37.857Z,0
2017-02-14T05:26:48.548Z,0
2017-02-14T05:27:59.257Z,0
2017-02-14T05:29:09.974Z,0
2017-02-14T05:30:20.664Z,0
2017-02-14T05:31:30.965Z,0
2017-02-14T05:32:41.657Z,0
2017-02-14T05:33:51.986Z,0
2017-02-14T05:35:02.691Z,0
2017-02-14T05:36:12.982Z,0
2017-02-14T05:37:23.293Z,0
2017-02-14T05:38:33.607Z,0
2017-02-14T05:39:43.912Z,0
2017-02-14T05:40:54.620Z,0
2017-02-14T05:42:05.328Z,0
2017-02-14T05:43:16.044Z,0
2017-02-14T05:44:26.760Z,0
2017-02-14T05:45:37.501Z,0
2017-02-14T05:46:48.186Z,0
2017-02-14T05:47:58.896Z,0
2017-02-14T05:49:09.605Z,0
2017-02-14T05:50:20.308Z,0
2017-02-14T05:51:31.020Z,0
2017-02-14T05:52:41.722Z,0
2017-02-14T05:53:52.428Z,0
2017-02-14T05:55:03.141Z,0
2017-02-14T05:56:13.837Z,0
2017-02-14T05:57:24.533Z,0
2017-02-14T05:58:35.233Z,0
2017-02-14T05:59:45.943Z,0
2017-02-14T06:00:56.639Z,0
2017-02-14T06:02:07.344Z,0
2017-02-14T06:03:17.639Z,0
2017-02-14T06:04:28.333Z,0
2017-02-14T06:05:39.026Z,0
2017-02-14T06:06:49.710Z,0
2017-02-14T06:08:00.398Z,0
2017-02-14T06:09:11.104Z,0
2017-02-14T06:10:21.799Z,0
2017-02-14T06:11:32.481Z,0
2017-02-14T06:12:43.200Z,0
2017-02-14T06:13:53.889Z,4
2017-02-14T06:15:04.599Z,4
2017-02-14T06:16:14.887Z,0
2017-02-14T06:17:25.617Z,0
2017-02-14T06:18:36.316Z,4
2017-02-14T06:19:46.623Z,4
2017-02-14T06:20:57.326Z,4
2017-02-14T06:22:08.017Z,4
2017-02-14T06:23:18.335Z,4
2017-02-14T06:24:29.044Z,4
2017-02-14T06:25:39.739Z,4
2017-02-14T06:26:50.033Z,8
2017-02-14T06:28:00.737Z,12
2017-02-14T06:29:11.449Z,12
2017-02-14T06:30:22.136Z,12
2017-02-14T06:31:32.833Z,16
2017-02-14T06:32:43.561Z,20
2017-02-14T06:33:54.273Z,20
2017-02-14T06:35:04.974Z,28
2017-02-14T06:36:14.880Z,32
2017-02-14T06:37:25.592Z,36
2017-02-14T06:38:35.910Z,44
2017-02-14T06:39:46.627Z,52
2017-02-14T06:40:57.313Z,56
2017-02-14T06:42:07.643Z,68
2017-02-14T06:43:18.371Z,76
2017-02-14T06:44:29.083Z,92
2017-02-14T06:45:39.770Z,100
2017-02-14T06:46:50.469Z,116
2017-02-14T06:48:01.177Z,124
2017-02-14T06:49:11.940Z,144
2017-02-14T06:50:22.632Z,160
2017-02-14T06:51:32.930Z,176
2017-02-14T06:52:43.635Z,200
2017-02-14T06:53:54.322Z,224
2017-02-14T06:55:05.017Z,248
2017-02-14T06:56:15.314Z,272
2017-02-14T06:57:26.024Z,300
2017-02-14T06:58:36.746Z,332
2017-02-14T06:59:47.461Z,360
2017-02-14T07:00:58.175Z,392
2017-02-14T07:02:08.478Z,424
2017-02-14T07:03:18.795Z,456
2017-02-14T07:04:29.493Z,492
2017-02-14T07:05:40.198Z,528
2017-02-14T07:06:50.496Z,564
2017-02-14T07:08:01.207Z,600
2017-02-14T07:09:11.918Z,636
2017-02-14T07:10:22.619Z,676
2017-02-14T07:11:33.310Z,708
2017-02-14T07:12:44.005Z,744
2017-02-14T07:13:54.688Z,784
2017-02-14T07:15:05.002Z,820
2017-02-14T07:16:15.700Z,860
2017-02-14T07:17:26.395Z,900
2017-02-14T07:18:36.694Z,940
2017-02-14T07:19:47.383Z,980
2017-02-14T07:20:58.089Z,1024
2017-02-14T07:22:08.784Z,1064
2017-02-14T07:23:19.489Z,1104
2017-02-14T07:24:30.193Z,1148
2017-02-14T07:25:40.911Z,1192
2017-02-14T07:26:51.621Z,1232
2017-02-14T07:28:02.335Z,1272
2017-02-14T07:29:12.627Z,1312
2017-02-14T07:30:23.334Z,1356
2017-02-14T07:31:34.029Z,1408
2017-02-14T07:32:44.742Z,1456
2017-02-14T07:33:55.439Z,1508
2017-02-14T07:35:05.339Z,1552
2017-02-14T07:36:15.656Z,1600
2017-02-14T07:37:26.351Z,1652
2017-02-14T07:38:37.046Z,1716
2017-02-14T07:39:47.750Z,1788
2017-02-14T07:40:58.446Z,1828
2017-02-14T07:42:09.151Z,1844
2017-02-14T07:43:19.451Z,1864
2017-02-14T07:44:30.142Z,1904
2017-02-14T07:45:40.859Z,1944
2017-02-14T07:46:51.170Z,1980
2017-02-14T07:48:01.862Z,2020
2017-02-14T07:49:12.544Z,2064
2017-02-14T07:50:23.242Z,2104
2017-02-14T07:51:34.017Z,2136
2017-02-14T07:52:44.738Z,2172
2017-02-14T07:53:55.490Z,2212
2017-02-14T07:55:05.785Z,2248
2017-02-14T07:56:16.084Z,2288
2017-02-14T07:57:26.386Z,2336
2017-02-14T07:58:37.088Z,2380
2017-02-14T07:59:47.779Z,2404
2017-02-14T08:00:58.486Z,2440
2017-02-14T08:02:09.185Z,2476
2017-02-14T08:03:19.502Z,2496
2017-02-14T08:04:30.204Z,2520
2017-02-14T08:05:40.496Z,2556
2017-02-14T08:06:51.190Z,2580
2017-02-14T08:08:01.100Z,2600
2017-02-14T08:09:11.797Z,2628
2017-02-14T08:10:22.505Z,2656
2017-02-14T08:11:33.196Z,2684
2017-02-14T08:12:43.904Z,2712
2017-02-14T08:13:54.593Z,2740
2017-02-14T08:15:05.313Z,2768
2017-02-14T08:16:16.011Z,2800
2017-02-14T08:17:26.732Z,2824
2017-02-14T08:18:37.440Z,2856
2017-02-14T08:19:47.749Z,2880
2017-02-14T08:20:58.463Z,2896
2017-02-14T08:22:09.171Z,2928
2017-02-14T08:23:19.478Z,2964
2017-02-14T08:24:30.184Z,2984
2017-02-14T08:25:40.878Z,3012
2017-02-14T08:26:51.581Z,3044
2017-02-14T08:28:02.297Z,3080
2017-02-14T08:29:13.004Z,3108
2017-02-14T08:30:23.729Z,3136
2017-02-14T08:31:34.461Z,3160
2017-02-14T08:32:45.170Z,3188
2017-02-14T08:33:55.869Z,3212
2017-02-14T08:35:06.583Z,3240
2017-02-14T08:36:17.362Z,3264
2017-02-14T08:37:28.374Z,3284
2017-02-14T08:38:38.677Z,3312
2017-02-14T08:39:49.382Z,3340
2017-02-14T08:41:00.078Z,3360
2017-02-14T08:42:10.386Z,3384
2017-02-14T08:43:21.082Z,3412
2017-02-14T08:44:31.788Z,3436
2017-02-14T08:45:42.479Z,3456
2017-02-14T08:46:53.170Z,3480
2017-02-14T08:48:03.496Z,3508
2017-02-14T08:49:13.795Z,3544
2017-02-14T08:50:24.492Z,3572
2017-02-14T08:51:35.207Z,3596
2017-02-14T08:52:45.940Z,3624
2017-02-14T08:53:56.655Z,3648
2017-02-14T08:55:07.349Z,3668
2017-02-14T08:56:18.059Z,3692
2017-02-14T08:57:28.756Z,3708
2017-02-14T08:58:39.497Z,3736
2017-02-14T08:59:49.802Z,3772
2017-02-14T09:01:00.097Z,3804
2017-02-14T09:02:10.786Z,3828
2017-02-14T09:03:21.506Z,3872
2017-02-14T09:04:32.210Z,3904
2017-02-14T09:05:42.916Z,3932
2017-02-14T09:06:53.623Z,3968
2017-02-14T09:08:04.306Z,4012
2017-02-14T09:09:14.600Z,4044
2017-02-14T09:10:25.311Z,4068
2017-02-14T09:11:36.004Z,4104
2017-02-14T09:12:46.708Z,4124
2017-02-14T09:13:57.415Z,4156
2017-02-14T09:15:07.711Z,4184
2017-02-14T09:16:18.440Z,4216
2017-02-14T09:17:29.131Z,4252
2017-02-14T09:18:39.848Z,4296
2017-02-14T09:19:50.580Z,4336
2017-02-14T09:21:01.279Z,4372
2017-02-14T09:22:12.009Z,4412
2017-02-14T09:23:22.732Z,4452
2017-02-14T09:24:33.429Z,4480
2017-02-14T09:25:44.130Z,4508
2017-02-14T09:26:54.817Z,4528
2017-02-14T09:28:05.526Z,4548
2017-02-14T09:29:15.827Z,4540
2017-02-14T09:30:26.127Z,4580
2017-02-14T09:31:36.836Z,4616
2017-02-14T09:32:47.524Z,4652
2017-02-14T09:33:57.861Z,4680
2017-02-14T09:35:08.551Z,4704
2017-02-14T09:36:18.858Z,4736
2017-02-14T09:37:29.168Z,4760
2017-02-14T09:38:39.461Z,4792
2017-02-14T09:39:50.177Z,4816
2017-02-14T09:41:00.867Z,4852
2017-02-14T09:42:11.598Z,4880
2017-02-14T09:43:22.315Z,4912
2017-02-14T09:44:33.030Z,4940
2017-02-14T09:45:42.958Z,4968
2017-02-14T09:46:53.657Z,4996
2017-02-14T09:48:04.366Z,5024
2017-02-14T09:49:14.670Z,5048
2017-02-14T09:50:25.388Z,5072
2017-02-14T09:51:36.099Z,5100
2017-02-14T09:52:46.406Z,5132
2017-02-14T09:53:57.105Z,5152
2017-02-14T09:55:07.826Z,5176
2017-02-14T09:56:18.139Z,5204
2017-02-14T09:57:28.840Z,5228
2017-02-14T09:58:39.525Z,5256
2017-02-14T09:59:50.242Z,5272
2017-02-14T10:01:00.966Z,5300
2017-02-14T10:02:11.660Z,5336
2017-02-14T10:03:22.350Z,5372
2017-02-14T10:04:33.054Z,5412
2017-02-14T10:05:43.357Z,5456
2017-02-14T10:06:54.083Z,5496
2017-02-14T10:08:04.782Z,5536
2017-02-14T10:09:15.091Z,5580
2017-02-14T10:10:25.797Z,5612
2017-02-14T10:11:36.505Z,5644
2017-02-14T10:12:47.228Z,5688
2017-02-14T10:13:57.917Z,5748
2017-02-14T10:15:08.273Z,5800
2017-02-14T10:16:18.170Z,5856
2017-02-14T10:17:28.869Z,5908
2017-02-14T10:18:39.570Z,5932
2017-02-14T10:19:50.275Z,5976
2017-02-14T10:21:00.983Z,6000
2017-02-14T10:22:11.707Z,6012
2017-02-14T10:23:22.407Z,6044
2017-02-14T10:24:33.110Z,6104
2017-02-14T10:25:43.411Z,6160
2017-02-14T10:26:53.728Z,6224
2017-02-14T10:28:04.430Z,6324
2017-02-14T10:29:14.736Z,6396
2017-02-14T10:30:25.051Z,6400
2017-02-14T10:31:35.365Z,6384
2017-02-14T10:32:45.667Z,6268
2017-02-14T10:33:56.370Z,6208
2017-02-14T10:35:07.122Z,6160
2017-02-14T10:36:17.843Z,6168
2017-02-14T10:37:28.578Z,6164
2017-02-14T10:38:38.902Z,6264
2017-02-14T10:39:49.222Z,6300
2017-02-14T10:40:59.538Z,6380
2017-02-14T10:42:09.445Z,6380
2017-02-14T10:43:20.162Z,6420
2017-02-14T10:44:30.861Z,6432
2017-02-14T10:45:41.580Z,6424
2017-02-14T10:46:52.289Z,6444
2017-02-14T10:48:02.994Z,6432
2017-02-14T10:49:13.716Z,6448
2017-02-14T10:50:24.429Z,6528
2017-02-14T10:51:34.335Z,6560
2017-02-14T10:52:44.250Z,6584
2017-02-14T10:53:54.570Z,6580
2017-02-14T10:55:05.273Z,6628
2017-02-14T10:56:15.198Z,6700
2017-02-14T10:57:25.907Z,6780
2017-02-14T10:58:36.257Z,6860
2017-02-14T10:59:46.962Z,6916
2017-02-14T11:00:57.667Z,6976
2017-02-14T11:02:08.383Z,7132
2017-02-14T11:03:18.719Z,8600
2017-02-14T11:04:29.424Z,23072
2017-02-14T11:05:40.122Z,31488
2017-02-14T11:06:50.822Z,32000
2017-02-14T11:08:01.521Z,32896
2017-02-14T11:09:11.832Z,32960
2017-02-14T11:10:22.559Z,33280
2017-02-14T11:11:33.268Z,32640
2017-02-14T11:12:43.972Z,32736
2017-02-14T11:13:54.679Z,34016
2017-02-14T11:15:05.409Z,32192
2017-02-14T11:16:15.725Z,31296
2017-02-14T11:17:26.454Z,31744
2017-02-14T11:18:36.788Z,30656
2017-02-14T11:19:47.509Z,30528
2017-02-14T11:20:58.257Z,31360
2017-02-14T11:22:08.599Z,32128
2017-02-14T11:23:19.333Z,32064
2017-02-14T11:24:30.053Z,32576
2017-02-14T11:25:40.780Z,32288
2017-02-14T11:26:51.488Z,32864
2017-02-14T11:28:02.197Z,32448
2017-02-14T11:29:12.906Z,32064
2017-02-14T11:30:23.219Z,33088
2017-02-14T11:31:33.941Z,32256
2017-02-14T11:32:44.669Z,31104
2017-02-14T11:33:54.996Z,33216
2017-02-14T11:35:05.713Z,33568
2017-02-14T11:36:16.017Z,33472
2017-02-14T11:37:26.751Z,34048
2017-02-14T11:38:37.476Z,33600
2017-02-14T11:39:48.183Z,33664
2017-02-14T11:40:58.901Z,34176
2017-02-14T11:42:09.642Z,35744
2017-02-14T11:43:20.359Z,35008
2017-02-14T11:44:31.056Z,35488
2017-02-14T11:45:41.377Z,34272
2017-02-14T11:46:52.105Z,33920
2017-02-14T11:48:02.837Z,33248
2017-02-14T11:49:13.572Z,33824
2017-02-14T11:50:24.338Z,33504
2017-02-14T11:51:35.048Z,33344
2017-02-14T11:52:45.767Z,32704
2017-02-14T11:53:56.080Z,32192
2017-02-14T11:55:06.408Z,33248
2017-02-14T11:56:17.140Z,34208
2017-02-14T11:57:27.847Z,34560
2017-02-14T11:58:38.558Z,35200
2017-02-14T11:59:49.266Z,36128
2017-02-14T12:00:59.583Z,35552
2017-02-14T12:02:09.895Z,36800
2017-02-14T12:03:20.621Z,37408
2017-02-14T12:04:31.346Z,36096
2017-02-14T12:05:42.055Z,36640
2017-02-14T12:06:52.377Z,37696
2017-02-14T12:08:02.734Z,36768
2017-02-14T12:09:13.062Z,32064
2017-02-14T12:10:23.796Z,24800
2017-02-14T12:11:34.560Z,21728
2017-02-14T12:12:44.876Z,21536
2017-02-14T12:13:55.601Z,19392
2017-02-14T12:15:05.913Z,18016
2017-02-14T12:16:16.258Z,16576
2017-02-14T12:17:27.006Z,16480
2017-02-14T12:18:37.328Z,16480
2017-02-14T12:19:47.256Z,16160
2017-02-14T12:20:57.984Z,16416
2017-02-14T12:22:08.728Z,16288
2017-02-14T12:23:19.463Z,16000
2017-02-14T12:24:30.169Z,15512
2017-02-14T12:25:40.884Z,15808
2017-02-14T12:26:51.612Z,15776
2017-02-14T12:28:01.576Z,15464
2017-02-14T12:29:11.490Z,16160
2017-02-14T12:30:21.806Z,16416
2017-02-14T12:31:32.528Z,16576
2017-02-14T12:32:43.240Z,16768
2017-02-14T12:33:53.956Z,16992
2017-02-14T12:35:04.283Z,16832
2017-02-14T12:36:15.006Z,16768
2017-02-14T12:37:25.741Z,17376
2017-02-14T12:38:36.051Z,17792
2017-02-14T12:39:46.763Z,17984
2017-02-14T12:40:57.492Z,18208
2017-02-14T12:42:08.201Z,18304
2017-02-14T12:43:18.122Z,18336
2017-02-14T12:44:28.850Z,18400
2017-02-14T12:45:39.573Z,19008
2017-02-14T12:46:50.315Z,19232
2017-02-14T12:48:01.049Z,19328
2017-02-14T12:49:11.787Z,19104
2017-02-14T12:50:22.517Z,18816
2017-02-14T12:51:33.238Z,17856
2017-02-14T12:52:43.977Z,17088
2017-02-14T12:53:54.706Z,17472
2017-02-14T12:55:05.417Z,17568
2017-02-14T12:56:16.143Z,17728
2017-02-14T12:57:26.876Z,18272
2017-02-14T12:58:37.596Z,18144
2017-02-14T12:59:47.913Z,17920
2017-02-14T13:00:58.639Z,18560
2017-02-14T13:02:09.375Z,18336
2017-02-14T13:03:20.115Z,18048
2017-02-14T13:04:30.456Z,18752
2017-02-14T13:05:41.184Z,18912
2017-02-14T13:06:51.920Z,19040
2017-02-14T13:08:02.644Z,19168
2017-02-14T13:09:13.379Z,18944
2017-02-14T13:10:24.086Z,19232
2017-02-14T13:11:34.809Z,18784
2017-02-14T13:12:45.129Z,17920
2017-02-14T13:13:55.884Z,17728
2017-02-14T13:15:06.608Z,16416
2017-02-14T13:16:17.359Z,14384
2017-02-14T13:17:28.074Z,13516
2017-02-14T13:18:38.414Z,12320
2017-02-14T13:19:48.769Z,11400
2017-02-14T13:20:59.479Z,11628
2017-02-14T13:22:10.228Z,13336
2017-02-14T13:23:20.551Z,13844
2017-02-14T13:24:30.884Z,14304
2017-02-14T13:25:41.635Z,13360
2017-02-14T13:26:51.968Z,12568
2017-02-14T13:28:02.704Z,11268
2017-02-14T13:29:13.416Z,12256
2017-02-14T13:30:24.144Z,14432
2017-02-14T13:31:34.874Z,14944
2017-02-14T13:32:45.586Z,14508
2017-02-14T13:33:55.922Z,13256
2017-02-14T13:35:06.648Z,10600
2017-02-14T13:36:16.998Z,8824
2017-02-14T13:37:27.706Z,9388
2017-02-14T13:38:38.040Z,8372
2017-02-14T13:39:48.769Z,7604
2017-02-14T13:40:59.519Z,7448
2017-02-14T13:42:09.827Z,8440
2017-02-14T13:43:20.148Z,9452
2017-02-14T13:44:30.474Z,9276
2017-02-14T13:45:41.193Z,8808
2017-02-14T13:46:51.926Z,7588
2017-02-14T13:48:02.651Z,7612
2017-02-14T13:49:12.970Z,9420
2017-02-14T13:50:23.285Z,7228
2017-02-14T13:51:34.008Z,5580
2017-02-14T13:52:43.936Z,6904
2017-02-14T13:53:54.664Z,8116
2017-02-14T13:55:05.384Z,6388
2017-02-14T13:56:16.111Z,5256
2017-02-14T13:57:26.825Z,6320
2017-02-14T13:58:37.550Z,6200
2017-02-14T13:59:47.884Z,5212
2017-02-14T14:00:58.611Z,4996
2017-02-14T14:02:09.339Z,4900
2017-02-14T14:03:19.663Z,7832
2017-02-14T14:04:30.405Z,11812
2017-02-14T14:05:41.122Z,12020
2017-02-14T14:06:51.444Z,12672
2017-02-14T14:08:02.161Z,11272
2017-02-14T14:09:12.868Z,12092
2017-02-14T14:10:23.615Z,11116
2017-02-14T14:11:34.338Z,5628
2017-02-14T14:12:45.049Z,5588
2017-02-14T14:13:55.401Z,12916
2017-02-14T14:15:05.721Z,17696
2017-02-14T14:16:16.437Z,13056
2017-02-14T14:17:27.166Z,11884
2017-02-14T14:18:37.874Z,10412
2017-02-14T14:19:48.576Z,8404
2017-02-14T14:20:59.298Z,7636
2017-02-14T14:22:09.626Z,4976
2017-02-14T14:23:20.396Z,3772
2017-02-14T14:24:31.122Z,3636
2017-02-14T14:25:41.832Z,3584
2017-02-14T14:26:52.538Z,3548
2017-02-14T14:28:03.256Z,3512
2017-02-14T14:29:13.192Z,3484
2017-02-14T14:30:23.921Z,3468
2017-02-14T14:31:34.625Z,3436
2017-02-14T14:32:44.932Z,3360
2017-02-14T14:33:55.635Z,3356
2017-02-14T14:35:06.368Z,3344
2017-02-14T14:36:16.672Z,3336
2017-02-14T14:37:27.003Z,3304
2017-02-14T14:38:37.325Z,3284
2017-02-14T14:39:47.642Z,3260
2017-02-14T14:40:58.356Z,3224
2017-02-14T14:42:09.077Z,3196
2017-02-14T14:43:19.406Z,3168
2017-02-14T14:44:30.101Z,3144
2017-02-14T14:45:40.809Z,3112
2017-02-14T14:46:51.518Z,3080
2017-02-14T14:48:01.835Z,3044
2017-02-14T14:49:12.553Z,3004
2017-02-14T14:50:23.287Z,2972
2017-02-14T14:51:33.992Z,2940
2017-02-14T14:52:44.713Z,2904
2017-02-14T14:53:55.461Z,2880
2017-02-14T14:55:05.771Z,2848
2017-02-14T14:56:16.483Z,2812
2017-02-14T14:57:27.206Z,2784
2017-02-14T14:58:37.923Z,2748
2017-02-14T14:59:48.632Z,2712
2017-02-14T15:00:59.353Z,2676
2017-02-14T15:02:10.075Z,2636
2017-02-14T15:03:20.384Z,2596
2017-02-14T15:04:32.273Z,2552
2017-02-14T15:05:42.982Z,2512
2017-02-14T15:06:53.702Z,2460
2017-02-14T15:08:04.052Z,2400
2017-02-14T15:09:14.754Z,2344
2017-02-14T15:10:25.486Z,2284
2017-02-14T15:11:36.198Z,2224
2017-02-14T15:12:46.933Z,2168
2017-02-14T15:13:57.247Z,2120
2017-02-14T15:15:07.580Z,2084
2017-02-14T15:16:18.312Z,2076
2017-02-14T15:17:29.036Z,2040
2017-02-14T15:18:39.761Z,2000
2017-02-14T15:19:50.494Z,1964
2017-02-14T15:21:01.213Z,1920
2017-02-14T15:22:11.925Z,1880
2017-02-14T15:23:22.632Z,1844
2017-02-14T15:24:33.355Z,1804
2017-02-14T15:25:44.083Z,1764
2017-02-14T15:26:54.814Z,1724
2017-02-14T15:28:05.541Z,1680
2017-02-14T15:29:15.854Z,1636
2017-02-14T15:30:26.571Z,1596
2017-02-14T15:31:37.309Z,1544
2017-02-14T15:32:47.621Z,1504
2017-02-14T15:33:58.365Z,1460
2017-02-14T15:35:09.081Z,1416
2017-02-14T15:36:19.430Z,1368
2017-02-14T15:37:30.140Z,1324
2017-02-14T15:38:40.473Z,1280
2017-02-14T15:39:51.196Z,1236
2017-02-14T15:41:01.916Z,1192
2017-02-14T15:42:12.648Z,1148
2017-02-14T15:43:22.974Z,1104
2017-02-14T15:44:33.718Z,1060
2017-02-14T15:45:44.430Z,1016
2017-02-14T15:46:55.151Z,972
2017-02-14T15:48:05.469Z,932
2017-02-14T15:49:15.414Z,888
2017-02-14T15:50:26.130Z,848
2017-02-14T15:51:36.856Z,804
2017-02-14T15:52:47.177Z,768
2017-02-14T15:53:57.495Z,724
2017-02-14T15:55:07.821Z,684
2017-02-14T15:56:17.761Z,644
2017-02-14T15:57:28.081Z,604
2017-02-14T15:58:38.781Z,568
2017-02-14T15:59:49.137Z,532
2017-02-14T16:00:59.880Z,496
2017-02-14T16:02:10.597Z,460
2017-02-14T16:03:21.318Z,428
2017-02-14T16:04:32.043Z,396
2017-02-14T16:05:42.748Z,368
2017-02-14T16:06:53.472Z,336
2017-02-14T16:08:03.794Z,308
2017-02-14T16:09:14.498Z,284
2017-02-14T16:10:25.213Z,264
2017-02-14T16:11:35.944Z,236
2017-02-14T16:12:46.656Z,216
2017-02-14T16:13:57.399Z,196
2017-02-14T16:15:07.708Z,176
2017-02-14T16:16:18.418Z,160